Time;durP1;ratioP1;P1;durP2;ratioP2;P2;SDS_P1;SDS_P2;PMS_P1;PMS_P2;Temp;Humidity;BMP_temperature;BMP_pressure;BME280_temperature;BME280_humidity;BME280_pressure;Samples;Min_cycle;Max_cycle;Signal;HPM_P1;HPM_P2
2022/01/17 00:00:52;;;;;;;33.87;20.03;;;5.90;99.90;;;;;;5073206;28;20686;-74
2022/01/17 00:03:17;;;;;;;33.20;20.20;;;5.90;99.90;;;;;;5073181;28;20269;-76
2022/01/17 00:05:43;;;;;;;33.17;18.90;;;5.90;99.90;;;;;;5072840;28;20255;-77
2022/01/17 00:08:08;;;;;;;35.43;18.00;;;5.90;99.90;;;;;;5072259;28;20222;-76
2022/01/17 00:10:34;;;;;;;36.33;18.77;;;5.90;99.90;;;;;;5071431;28;20268;-76
2022/01/17 00:12:59;;;;;;;29.93;17.87;;;6.00;99.90;;;;;;5071316;28;20671;-77
2022/01/17 00:15:41;;;;;;;28.63;17.20;;;5.90;99.90;;;;;;5072642;28;20222;-76
2022/01/17 00:18:26;;;;;;;33.37;15.20;;;5.90;99.90;;;;;;5065285;28;20589;-76
2022/01/17 00:20:52;;;;;;;33.83;16.17;;;6.00;99.90;;;;;;5058116;28;20227;-75
2022/01/17 00:23:17;;;;;;;30.23;16.30;;;6.00;99.90;;;;;;5072168;28;20264;-76
2022/01/17 00:25:43;;;;;;;29.00;15.23;;;6.00;99.90;;;;;;5072417;28;20739;-76
2022/01/17 00:28:09;;;;;;;30.20;15.07;;;6.00;99.90;;;;;;5058546;28;20220;-77
2022/01/17 00:30:34;;;;;;;27.80;14.17;;;6.00;99.90;;;;;;5069379;28;20171;-76
2022/01/17 00:33:00;;;;;;;28.63;14.33;;;6.00;99.90;;;;;;5071293;28;20630;-76
2022/01/17 00:35:25;;;;;;;24.63;15.00;;;6.00;99.90;;;;;;5055702;28;20243;-76
2022/01/17 00:37:52;;;;;;;24.70;13.57;;;6.10;99.90;;;;;;5070309;28;20256;-74
2022/01/17 00:40:18;;;;;;;25.10;14.30;;;6.10;99.90;;;;;;5072166;28;20217;-76
2022/01/17 00:42:44;;;;;;;26.60;14.47;;;6.10;99.90;;;;;;5071711;28;20519;-76
2022/01/17 00:45:12;;;;;;;23.93;13.90;;;6.10;99.90;;;;;;5071390;28;20175;-76
2022/01/17 00:47:38;;;;;;;30.37;13.97;;;6.10;99.90;;;;;;5053688;28;20659;-76
2022/01/17 00:50:04;;;;;;;26.93;14.07;;;6.10;99.90;;;;;;5060553;28;20294;-76
2022/01/17 00:52:30;;;;;;;23.40;12.93;;;6.10;99.90;;;;;;5071917;28;20240;-76
2022/01/17 00:54:55;;;;;;;22.27;11.93;;;6.20;99.90;;;;;;5072129;28;20694;-76
2022/01/17 00:57:21;;;;;;;21.60;11.73;;;6.20;99.90;;;;;;5072399;28;20311;-74
2022/01/17 00:59:47;;;;;;;22.93;12.27;;;6.20;99.90;;;;;;5074797;28;20293;-76
2022/01/17 01:02:12;;;;;;;24.60;11.80;;;6.20;99.90;;;;;;5071587;28;20237;-76
2022/01/17 01:04:38;;;;;;;23.67;12.37;;;6.20;99.90;;;;;;5070339;28;20222;-76
2022/01/17 01:07:03;;;;;;;23.53;11.60;;;6.20;99.90;;;;;;5070092;28;20206;-77
2022/01/17 01:09:34;;;;;;;20.03;11.07;;;6.20;99.90;;;;;;5071612;28;20226;-76
2022/01/17 01:12:00;;;;;;;19.77;11.60;;;6.30;99.90;;;;;;5070433;28;20211;-78
2022/01/17 01:14:25;;;;;;;23.60;12.43;;;6.30;99.90;;;;;;5071247;28;20739;-76
2022/01/17 01:16:53;;;;;;;22.83;11.50;;;6.30;99.90;;;;;;5063119;28;20291;-73
2022/01/17 01:19:26;;;;;;;21.60;11.63;;;6.30;99.90;;;;;;5036521;28;20204;-76
2022/01/17 01:27:40;;;;;;;19.30;11.13;;;6.30;99.90;;;;;;5056766;28;20720;-75
2022/01/17 01:27:53;;;;;;;17.77;9.97;;;6.40;99.90;;;;;;5070746;28;20209;-76
2022/01/17 01:30:20;;;;;;;17.53;9.63;;;6.40;99.90;;;;;;5070494;28;20702;-76
2022/01/17 01:32:51;;;;;;;17.33;8.83;;;6.40;99.90;;;;;;5060895;28;20219;-76
2022/01/17 01:35:20;;;;;;;18.00;9.03;;;6.40;99.90;;;;;;5071106;28;20297;-76
2022/01/17 01:37:47;;;;;;;15.07;8.50;;;6.40;99.90;;;;;;5070498;28;20235;-75
2022/01/17 01:40:13;;;;;;;14.60;7.73;;;6.40;99.90;;;;;;5071187;28;20298;-76
2022/01/17 01:42:39;;;;;;;14.50;7.83;;;6.40;99.90;;;;;;5070818;28;20262;-76
2022/01/17 01:45:07;;;;;;;17.60;8.20;;;6.40;99.90;;;;;;5071532;28;20174;-75
2022/01/17 01:47:33;;;;;;;14.70;6.37;;;6.40;99.90;;;;;;5054002;28;20250;-75
2022/01/17 01:49:59;;;;;;;11.43;5.90;;;6.50;99.90;;;;;;5043147;28;20286;-76
2022/01/17 01:52:25;;;;;;;13.53;5.20;;;6.50;99.90;;;;;;5068072;28;20652;-76
2022/01/17 01:54:51;;;;;;;9.63;4.40;;;6.50;99.90;;;;;;5055826;28;20272;-74
2022/01/17 01:57:16;;;;;;;8.97;4.53;;;6.50;99.90;;;;;;5071006;28;20668;-76
2022/01/17 01:59:42;;;;;;;12.10;3.80;;;6.50;99.90;;;;;;5070553;28;20590;-76
2022/01/17 02:02:08;;;;;;;13.20;3.57;;;6.50;99.90;;;;;;5069363;28;20202;-77
2022/01/17 02:04:33;;;;;;;6.90;2.47;;;6.50;99.90;;;;;;5070722;28;20719;-76
2022/01/17 02:06:59;;;;;;;10.03;2.57;;;6.50;99.90;;;;;;5069479;28;20203;-76
2022/01/17 02:09:25;;;;;;;6.60;2.27;;;6.40;99.90;;;;;;5069297;28;20179;-75
2022/01/17 02:11:51;;;;;;;7.07;2.20;;;6.40;99.90;;;;;;5070757;28;20203;-74
2022/01/17 02:14:17;;;;;;;9.23;2.53;;;6.30;99.90;;;;;;5069340;28;20709;-75
2022/01/17 02:16:44;;;;;;;5.50;2.00;;;6.20;99.90;;;;;;5052370;28;20238;-76
2022/01/17 02:19:10;;;;;;;6.07;1.77;;;6.10;99.90;;;;;;5058706;28;20310;-76
2022/01/17 02:21:48;;;;;;;7.73;1.60;;;6.10;99.90;;;;;;5070501;28;20201;-76
2022/01/17 02:24:19;;;;;;;7.50;1.83;;;6.00;99.90;;;;;;5071065;28;20177;-76
2022/01/17 02:26:46;;;;;;;9.07;2.20;;;6.00;99.90;;;;;;5070507;28;20208;-75
2022/01/17 02:29:12;;;;;;;7.23;2.10;;;6.00;99.90;;;;;;5070529;28;20215;-76
2022/01/17 02:31:40;;;;;;;6.33;1.60;;;6.10;99.90;;;;;;5069877;28;20719;-76
2022/01/17 02:34:05;;;;;;;13.67;2.23;;;6.10;99.90;;;;;;5069807;28;20227;-75
2022/01/17 02:36:31;;;;;;;6.67;2.73;;;6.10;99.90;;;;;;5071263;28;20211;-75
2022/01/17 02:39:50;;;;;;;7.97;1.87;;;6.10;99.90;;;;;;5070741;28;20215;-76
2022/01/17 02:42:19;;;;;;;6.87;1.40;;;6.20;99.90;;;;;;5039037;28;20308;-76
2022/01/17 02:44:45;;;;;;;6.67;1.60;;;6.20;99.90;;;;;;5051196;28;20203;-76
2022/01/17 02:47:11;;;;;;;8.50;1.93;;;6.20;99.90;;;;;;5059469;28;20226;-76
2022/01/17 02:49:37;;;;;;;8.10;1.83;;;6.20;99.90;;;;;;5050495;28;20688;-76
2022/01/17 02:52:03;;;;;;;6.63;1.80;;;6.20;99.90;;;;;;5048928;28;20211;-76
2022/01/17 02:54:28;;;;;;;6.37;1.70;;;6.20;99.90;;;;;;5058481;28;20674;-76
2022/01/17 02:56:54;;;;;;;4.67;1.30;;;6.20;99.90;;;;;;5050057;28;20210;-76
2022/01/17 02:59:19;;;;;;;5.60;1.43;;;6.20;99.90;;;;;;5049670;28;20211;-76
2022/01/17 03:01:45;;;;;;;5.90;1.47;;;6.20;99.90;;;;;;5049846;28;20299;-77
2022/01/17 03:04:10;;;;;;;7.23;1.63;;;6.30;99.90;;;;;;5048614;28;20214;-76
2022/01/17 03:06:36;;;;;;;7.33;1.77;;;6.30;99.90;;;;;;5049697;28;20266;-77
2022/01/17 03:09:02;;;;;;;9.13;1.67;;;6.30;99.90;;;;;;5050133;28;20196;-76
2022/01/17 03:11:28;;;;;;;7.60;2.07;;;6.30;99.90;;;;;;5048034;28;20216;-76
2022/01/17 03:13:54;;;;;;;7.37;1.70;;;6.30;99.90;;;;;;5049936;28;20213;-76
2022/01/17 03:16:29;;;;;;;8.90;1.57;;;6.30;99.90;;;;;;5048572;28;20231;-76
2022/01/17 03:18:55;;;;;;;10.97;2.20;;;6.30;99.90;;;;;;5042704;28;20298;-76
2022/01/17 03:21:21;;;;;;;11.60;2.43;;;6.30;99.90;;;;;;5048937;28;20542;-74
2022/01/17 03:23:48;;;;;;;6.60;1.97;;;6.30;99.90;;;;;;5048284;28;20258;-77
2022/01/17 03:26:14;;;;;;;10.17;1.83;;;6.40;99.90;;;;;;5050152;28;20219;-76
2022/01/17 03:28:39;;;;;;;11.17;1.97;;;6.40;99.90;;;;;;5049067;28;20215;-76
2022/01/17 03:31:06;;;;;;;12.07;2.30;;;6.40;99.90;;;;;;5050430;28;20211;-76
2022/01/17 03:33:32;;;;;;;10.73;2.20;;;6.40;99.90;;;;;;5052714;28;20314;-76
2022/01/17 03:35:58;;;;;;;7.47;2.00;;;6.40;99.90;;;;;;5053894;28;20286;-76
2022/01/17 03:38:28;;;;;;;11.77;2.07;;;6.30;99.90;;;;;;5050859;28;20220;-76
2022/01/17 03:40:54;;;;;;;4.90;2.00;;;6.30;99.90;;;;;;5053308;28;20208;-77
2022/01/17 03:43:21;;;;;;;12.70;2.53;;;6.30;99.90;;;;;;5052759;28;20213;-76
2022/01/17 03:45:49;;;;;;;12.03;2.10;;;6.30;99.90;;;;;;5073232;28;20201;-76
2022/01/17 03:48:15;;;;;;;7.50;1.80;;;6.30;99.90;;;;;;5077907;28;20674;-76
2022/01/17 03:50:41;;;;;;;10.63;1.97;;;6.30;99.90;;;;;;5087155;28;20213;-76
2022/01/17 03:53:07;;;;;;;8.97;2.13;;;6.30;99.90;;;;;;5082017;28;20215;-76
2022/01/17 03:55:34;;;;;;;8.53;2.10;;;6.30;99.90;;;;;;5072893;28;20226;-76
2022/01/17 03:58:01;;;;;;;8.00;2.57;;;6.30;99.90;;;;;;5072326;28;20230;-75
2022/01/17 04:00:30;;;;;;;12.50;2.10;;;6.30;99.90;;;;;;5073086;28;20174;-77
2022/01/17 04:02:57;;;;;;;8.83;2.50;;;6.30;99.90;;;;;;5071433;28;20210;-76
2022/01/17 04:05:22;;;;;;;7.97;2.60;;;6.30;99.90;;;;;;5072856;28;20291;-76
2022/01/17 04:07:48;;;;;;;8.90;2.07;;;6.30;99.90;;;;;;5070924;28;20240;-76
2022/01/17 04:10:15;;;;;;;5.33;1.40;;;6.30;99.90;;;;;;5072764;28;20359;-76
2022/01/17 04:12:42;;;;;;;8.63;2.03;;;6.30;99.90;;;;;;5067061;28;20652;-76
2022/01/17 04:15:08;;;;;;;9.90;1.90;;;6.30;99.90;;;;;;5073091;28;20207;-76
2022/01/17 04:17:35;;;;;;;6.00;1.83;;;6.30;99.90;;;;;;5072036;28;20210;-77
2022/01/17 04:20:07;;;;;;;12.27;2.10;;;6.40;99.90;;;;;;5071029;28;20202;-75
2022/01/17 04:22:37;;;;;;;8.80;1.77;;;6.30;99.90;;;;;;5072297;28;20737;-76
2022/01/17 04:25:04;;;;;;;8.60;1.90;;;6.30;99.90;;;;;;5073032;28;20214;-75
2022/01/17 04:27:29;;;;;;;9.23;2.03;;;6.30;99.90;;;;;;5072562;28;20210;-76
2022/01/17 04:29:55;;;;;;;6.87;1.70;;;6.30;99.90;;;;;;5072285;28;20202;-76
2022/01/17 04:32:20;;;;;;;8.70;1.90;;;6.30;99.90;;;;;;5070692;28;20703;-76
2022/01/17 04:34:46;;;;;;;12.90;2.57;;;6.30;99.90;;;;;;5072124;28;20250;-76
2022/01/17 04:37:12;;;;;;;6.50;1.70;;;6.30;99.90;;;;;;5070383;28;20231;-76
2022/01/17 04:39:37;;;;;;;14.13;2.53;;;6.30;99.90;;;;;;5071586;28;20183;-76
2022/01/17 04:42:11;;;;;;;14.53;2.23;;;6.30;99.90;;;;;;5071419;28;20543;-76
2022/01/17 04:47:22;;;;;;;8.63;1.83;;;6.30;99.90;;;;;;5071886;28;20249;-74
2022/01/17 04:49:47;;;;;;;11.37;2.33;;;6.20;99.90;;;;;;5070362;28;20197;-76
2022/01/17 04:52:14;;;;;;;13.07;2.60;;;6.30;99.90;;;;;;5071535;28;20259;-76
2022/01/17 04:54:41;;;;;;;8.53;1.50;;;6.30;99.90;;;;;;5070420;28;20175;-75
2022/01/17 04:57:12;;;;;;;11.37;2.30;;;6.30;99.90;;;;;;5072327;28;20163;-76
2022/01/17 04:59:42;;;;;;;5.93;1.90;;;6.30;99.90;;;;;;5070054;28;20341;-76
2022/01/17 05:02:08;;;;;;;8.60;2.30;;;6.30;99.90;;;;;;5070440;28;20256;-75
2022/01/17 05:04:33;;;;;;;9.87;2.40;;;6.20;99.90;;;;;;5070130;28;20293;-76
2022/01/17 05:06:59;;;;;;;13.07;2.07;;;6.20;99.90;;;;;;5070169;28;20214;-76
2022/01/17 05:09:24;;;;;;;7.60;1.90;;;6.20;99.90;;;;;;5071366;28;20190;-76
2022/01/17 05:11:51;;;;;;;9.57;1.90;;;6.20;99.90;;;;;;5071350;28;20205;-76
2022/01/17 05:14:17;;;;;;;10.30;1.77;;;6.20;99.90;;;;;;5066201;28;20630;-76
2022/01/17 05:16:48;;;;;;;7.80;1.80;;;6.20;99.90;;;;;;5071075;28;20214;-76
2022/01/17 05:21:58;;;;;;;7.37;1.80;;;6.20;99.90;;;;;;5071474;28;20217;-75
2022/01/17 05:24:23;;;;;;;4.27;1.53;;;6.20;99.90;;;;;;5071489;28;20186;-76
2022/01/17 05:26:49;;;;;;;9.03;2.20;;;6.30;99.90;;;;;;5069711;28;20804;-76
2022/01/17 05:29:15;;;;;;;6.73;1.97;;;6.30;99.90;;;;;;5070791;28;20762;-75
2022/01/17 05:31:40;;;;;;;8.63;1.73;;;6.30;99.90;;;;;;5069543;28;21034;-76
2022/01/17 05:34:06;;;;;;;7.20;1.67;;;6.30;99.90;;;;;;5071006;28;20207;-76
2022/01/17 05:36:31;;;;;;;11.50;1.93;;;6.30;99.90;;;;;;5071155;28;20225;-76
2022/01/17 05:38:56;;;;;;;8.23;1.87;;;6.30;99.90;;;;;;5081659;23;20314;-75
2022/01/17 05:41:22;;;;;;;12.77;2.00;;;6.30;99.90;;;;;;5055929;28;20199;-74
2022/01/17 05:43:48;;;;;;;7.23;1.47;;;6.30;99.90;;;;;;5057858;28;20203;-73
2022/01/17 05:46:13;;;;;;;8.30;2.10;;;6.30;99.90;;;;;;5055121;28;20215;-75
2022/01/17 05:48:39;;;;;;;8.07;1.80;;;6.30;99.90;;;;;;5054696;28;20574;-75
2022/01/17 05:51:04;;;;;;;9.53;1.80;;;6.40;99.90;;;;;;5056971;28;20176;-75
2022/01/17 05:53:30;;;;;;;10.63;1.67;;;6.40;99.90;;;;;;5054885;28;20211;-75
2022/01/17 05:55:56;;;;;;;12.47;2.37;;;6.30;99.90;;;;;;5056236;28;20219;-75
2022/01/17 05:58:21;;;;;;;8.20;1.70;;;6.40;99.90;;;;;;5055206;28;20576;-73
2022/01/17 06:00:47;;;;;;;6.93;1.43;;;6.40;99.90;;;;;;5059945;28;20214;-75
2022/01/17 06:03:12;;;;;;;9.37;2.07;;;6.30;99.90;;;;;;5067897;28;20635;-73
2022/01/17 06:05:38;;;;;;;7.53;1.70;;;6.40;99.90;;;;;;5068320;28;20217;-74
2022/01/17 06:08:04;;;;;;;6.97;1.90;;;6.40;99.90;;;;;;5068741;28;20216;-74
2022/01/17 06:10:29;;;;;;;10.57;2.20;;;6.40;99.90;;;;;;5071326;28;20278;-74
2022/01/17 06:12:55;;;;;;;8.00;1.57;;;6.40;99.90;;;;;;5062561;28;20241;-74
2022/01/17 06:15:21;;;;;;;11.13;1.80;;;6.40;99.90;;;;;;5062747;28;20199;-73
2022/01/17 06:17:46;;;;;;;13.87;2.00;;;6.40;99.90;;;;;;5064939;28;20217;-75
2022/01/17 06:20:12;;;;;;;4.33;1.43;;;6.40;99.90;;;;;;5065819;28;20217;-74
2022/01/17 06:22:38;;;;;;;9.43;1.70;;;6.40;99.90;;;;;;5056950;28;20215;-75
2022/01/17 06:25:04;;;;;;;10.67;1.60;;;6.30;99.90;;;;;;5067671;28;20206;-74
2022/01/17 06:27:30;;;;;;;8.10;1.73;;;6.40;99.90;;;;;;5066349;28;20186;-75
2022/01/17 06:29:57;;;;;;;11.83;1.97;;;6.30;99.90;;;;;;5059626;28;20210;-74
2022/01/17 06:32:23;;;;;;;7.87;1.30;;;6.20;99.90;;;;;;5064850;28;20646;-74
2022/01/17 06:34:48;;;;;;;10.77;2.33;;;6.20;99.90;;;;;;5066779;28;22161;-75
2022/01/17 06:37:14;;;;;;;15.00;2.10;;;6.20;99.90;;;;;;5067458;28;20212;-75
2022/01/17 06:39:40;;;;;;;6.57;1.67;;;6.10;99.90;;;;;;5065738;28;20324;-75
2022/01/17 06:42:06;;;;;;;6.47;1.80;;;6.10;99.90;;;;;;5067304;28;20247;-74
2022/01/17 06:44:31;;;;;;;8.20;1.67;;;6.10;99.90;;;;;;5056507;28;20212;-74
2022/01/17 06:46:57;;;;;;;8.80;1.83;;;6.10;99.90;;;;;;5066411;28;20306;-74
2022/01/17 06:49:22;;;;;;;11.70;2.30;;;6.10;99.90;;;;;;5064631;28;20226;-74
2022/01/17 06:51:48;;;;;;;10.47;1.73;;;6.10;99.90;;;;;;5067505;28;20174;-75
2022/01/17 06:54:13;;;;;;;8.70;2.20;;;6.00;99.90;;;;;;5067480;28;20317;-75
2022/01/17 06:56:43;;;;;;;6.50;2.20;;;5.90;99.90;;;;;;5065328;28;20218;-75
2022/01/17 06:59:13;;;;;;;12.03;2.00;;;5.90;99.90;;;;;;5066216;28;20218;-75
2022/01/17 07:01:39;;;;;;;8.20;2.00;;;5.90;99.90;;;;;;5061836;28;20226;-75
2022/01/17 07:04:06;;;;;;;9.60;1.23;;;5.90;99.90;;;;;;5071870;28;20243;-75
2022/01/17 07:06:32;;;;;;;6.80;1.83;;;5.90;99.90;;;;;;5073680;28;20174;-75
2022/01/17 07:08:57;;;;;;;9.13;1.90;;;5.90;99.90;;;;;;5070156;28;20214;-75
2022/01/17 07:11:23;;;;;;;8.67;1.77;;;5.90;99.90;;;;;;5070214;28;20219;-75
2022/01/17 07:13:48;;;;;;;7.70;2.17;;;5.90;99.90;;;;;;5075027;28;20206;-74
2022/01/17 07:16:14;;;;;;;7.77;2.13;;;5.90;99.90;;;;;;5074862;28;20820;-75
2022/01/17 07:18:39;;;;;;;9.00;1.60;;;5.90;99.90;;;;;;5072041;28;20210;-75
2022/01/17 07:21:05;;;;;;;10.97;1.60;;;6.00;99.90;;;;;;5071798;28;20183;-74
2022/01/17 07:23:31;;;;;;;8.73;1.90;;;6.00;99.90;;;;;;5072613;28;20222;-76
2022/01/17 07:25:56;;;;;;;6.73;1.57;;;6.00;99.90;;;;;;5075074;28;20201;-75
2022/01/17 07:28:22;;;;;;;8.97;1.70;;;6.00;99.90;;;;;;5074334;28;20314;-74
2022/01/17 07:30:48;;;;;;;7.97;1.60;;;6.00;99.90;;;;;;5073474;28;20198;-74
2022/01/17 07:33:13;;;;;;;5.73;1.60;;;6.00;99.90;;;;;;5075401;28;20194;-76
2022/01/17 07:35:39;;;;;;;4.43;1.20;;;6.10;99.90;;;;;;5071793;28;20304;-76
2022/01/17 07:38:05;;;;;;;8.27;1.70;;;6.10;99.90;;;;;;5069596;28;20227;-75
2022/01/17 07:40:31;;;;;;;5.70;1.30;;;6.20;99.90;;;;;;5071438;28;20278;-76
2022/01/17 07:42:57;;;;;;;3.97;1.37;;;6.20;99.90;;;;;;5070047;28;20207;-75
2022/01/17 07:45:25;;;;;;;8.33;2.23;;;6.20;99.90;;;;;;5070561;28;20238;-74
2022/01/17 07:50:20;;;;;;;9.43;2.67;;;6.20;99.90;;;;;;5068596;28;20242;-75
2022/01/17 07:52:47;;;;;;;6.90;2.07;;;6.20;99.90;;;;;;5068010;28;20233;-75
2022/01/17 07:55:13;;;;;;;7.53;1.83;;;6.20;99.90;;;;;;5066546;28;20219;-75
2022/01/17 07:57:41;;;;;;;6.53;1.60;;;6.20;99.90;;;;;;5069459;28;20353;-74
2022/01/17 08:00:08;;;;;;;8.37;1.90;;;6.20;99.90;;;;;;5071675;28;20670;-75
2022/01/17 08:02:34;;;;;;;5.47;1.43;;;6.20;99.90;;;;;;5070448;28;20215;-75
2022/01/17 08:04:59;;;;;;;5.37;1.67;;;6.20;99.90;;;;;;5071222;28;20207;-75
2022/01/17 08:07:25;;;;;;;8.40;2.60;;;6.20;99.90;;;;;;5069220;28;20223;-75
2022/01/17 08:09:51;;;;;;;7.13;1.70;;;6.30;99.90;;;;;;5065250;28;20195;-75
2022/01/17 08:12:16;;;;;;;4.77;1.40;;;6.30;99.90;;;;;;5068133;28;20534;-75
2022/01/17 08:14:42;;;;;;;9.00;2.37;;;6.30;99.90;;;;;;5067307;28;20353;-75
2022/01/17 08:17:07;;;;;;;4.00;1.57;;;6.30;99.90;;;;;;5066348;28;20210;-75
2022/01/17 08:19:34;;;;;;;6.47;2.73;;;6.30;99.90;;;;;;5050709;28;20215;-76
2022/01/17 08:22:01;;;;;;;9.10;2.20;;;6.20;99.90;;;;;;5069628;28;20220;-75
2022/01/17 08:24:27;;;;;;;5.70;1.50;;;6.20;99.90;;;;;;5069198;28;20202;-76
2022/01/17 08:26:53;;;;;;;6.07;1.83;;;6.20;99.90;;;;;;5065201;28;20734;-75
2022/01/17 08:29:18;;;;;;;5.17;1.20;;;6.30;99.90;;;;;;5064892;28;20219;-75
2022/01/17 08:31:46;;;;;;;4.70;1.53;;;6.30;99.90;;;;;;5072242;28;20207;-75
2022/01/17 08:34:13;;;;;;;2.87;1.20;;;6.30;99.90;;;;;;5066203;28;20589;-75
2022/01/17 08:36:39;;;;;;;5.23;1.30;;;6.30;99.90;;;;;;5068241;28;20217;-75
2022/01/17 08:39:06;;;;;;;4.97;1.30;;;6.30;99.90;;;;;;5067412;28;20215;-75
2022/01/17 08:41:32;;;;;;;6.00;1.53;;;6.40;99.90;;;;;;5067318;28;20217;-75
2022/01/17 08:43:57;;;;;;;10.00;1.70;;;6.40;99.90;;;;;;5065331;28;20700;-74
2022/01/17 08:46:23;;;;;;;4.10;1.47;;;6.50;99.90;;;;;;5064267;28;20220;-75
2022/01/17 08:48:48;;;;;;;6.87;1.30;;;6.50;99.90;;;;;;5067981;28;20205;-76
2022/01/17 08:51:14;;;;;;;3.43;1.10;;;6.40;99.90;;;;;;5068521;28;20178;-75
2022/01/17 08:53:39;;;;;;;4.77;1.40;;;6.50;99.90;;;;;;5066187;28;20297;-74
2022/01/17 08:56:05;;;;;;;3.90;1.10;;;6.50;99.90;;;;;;5064237;28;20306;-75
2022/01/17 08:58:31;;;;;;;5.83;1.20;;;6.50;99.90;;;;;;5065871;28;20307;-75
2022/01/17 09:00:57;;;;;;;4.33;1.37;;;6.50;99.90;;;;;;5069179;28;20203;-75
2022/01/17 09:03:23;;;;;;;6.40;1.10;;;6.60;99.90;;;;;;5067332;28;20186;-75
2022/01/17 09:05:50;;;;;;;2.77;1.00;;;6.60;99.90;;;;;;5064011;28;20275;-74
2022/01/17 09:08:16;;;;;;;5.33;1.40;;;6.50;99.90;;;;;;5063943;28;20234;-75
2022/01/17 09:10:42;;;;;;;8.57;1.40;;;6.50;99.90;;;;;;5067662;28;20348;-75
2022/01/17 09:13:07;;;;;;;3.00;1.30;;;6.50;99.90;;;;;;5066007;28;20258;-75
2022/01/17 09:15:35;;;;;;;4.43;1.43;;;6.50;99.90;;;;;;5065071;28;20206;-75
2022/01/17 09:18:00;;;;;;;3.47;1.23;;;6.50;99.90;;;;;;5065165;28;20198;-75
2022/01/17 09:20:26;;;;;;;3.93;1.43;;;6.50;99.90;;;;;;5065131;28;20199;-74
2022/01/17 09:22:52;;;;;;;1.63;1.20;;;6.50;99.90;;;;;;5066203;28;20203;-75
2022/01/17 09:25:18;;;;;;;4.50;1.47;;;6.50;99.90;;;;;;5066687;28;20236;-75
2022/01/17 09:27:43;;;;;;;4.83;1.50;;;6.50;99.90;;;;;;5064570;28;20700;-77
2022/01/17 09:30:12;;;;;;;4.50;1.50;;;6.50;99.90;;;;;;5065649;28;20325;-76
2022/01/17 09:32:38;;;;;;;5.53;1.60;;;6.60;99.90;;;;;;5064028;28;20238;-76
2022/01/17 09:35:06;;;;;;;3.63;1.73;;;6.60;99.90;;;;;;5063057;28;20219;-76
2022/01/17 09:37:32;;;;;;;3.80;1.60;;;6.60;99.90;;;;;;5065735;28;20235;-76
2022/01/17 09:39:57;;;;;;;4.77;1.37;;;6.60;99.90;;;;;;5070865;28;20220;-76
2022/01/17 09:42:23;;;;;;;4.00;1.50;;;6.60;99.90;;;;;;5064697;28;20561;-76
2022/01/17 09:44:48;;;;;;;2.43;1.57;;;6.60;99.90;;;;;;5067749;28;20203;-76
2022/01/17 09:47:16;;;;;;;4.67;1.80;;;6.70;99.90;;;;;;5067304;28;20219;-76
2022/01/17 09:49:48;;;;;;;6.57;2.03;;;6.70;99.90;;;;;;5063191;28;20233;-76
2022/01/17 09:54:43;;;;;;;5.07;1.80;;;6.70;99.90;;;;;;5066326;28;20175;-76
2022/01/17 09:57:11;;;;;;;4.17;2.07;;;6.70;99.90;;;;;;5067755;28;20199;-76
2022/01/17 09:59:39;;;;;;;8.63;1.70;;;6.80;99.90;;;;;;5064318;28;20574;-76
2022/01/17 10:02:06;;;;;;;6.07;1.60;;;6.80;99.90;;;;;;5064182;28;20636;-74
2022/01/17 10:04:33;;;;;;;2.40;1.00;;;6.60;99.90;;;;;;5065973;28;20245;-75
2022/01/17 10:07:01;;;;;;;3.50;1.17;;;6.40;99.90;;;;;;5065014;28;20633;-74
2022/01/17 10:09:28;;;;;;;3.80;0.90;;;6.40;99.90;;;;;;5075139;28;20583;-74
2022/01/17 10:12:29;;;;;;;5.73;2.60;;;6.30;99.90;;;;;;5077795;28;20203;-74
2022/01/17 10:15:00;;;;;;;4.20;1.50;;;6.30;99.90;;;;;;5078377;28;20231;-74
2022/01/17 10:17:44;;;;;;;2.57;1.00;;;6.30;99.90;;;;;;5081096;28;20219;-74
2022/01/17 10:20:13;;;;;;;4.70;1.60;;;6.40;99.90;;;;;;5076049;28;20233;-74
2022/01/17 10:22:50;;;;;;;8.03;3.33;;;6.50;99.90;;;;;;5072819;28;20212;-75
2022/01/17 10:25:26;;;;;;;3.83;1.47;;;6.60;99.90;;;;;;5070045;28;20218;-75
2022/01/17 10:36:17;;;;;;;5.60;1.70;;;6.80;99.90;;;;;;5065109;28;20231;-76
2022/01/17 10:38:43;;;;;;;5.00;1.57;;;6.80;99.90;;;;;;5066964;28;20214;-76
2022/01/17 10:41:08;;;;;;;9.57;2.87;;;6.90;99.90;;;;;;5073705;28;20686;-76
2022/01/17 10:43:38;;;;;;;6.20;1.53;;;6.90;99.90;;;;;;5072437;28;20215;-76
2022/01/17 10:46:06;;;;;;;13.93;5.50;;;6.90;99.90;;;;;;5070067;28;20277;-76
2022/01/17 10:48:40;;;;;;;7.83;1.67;;;7.00;99.90;;;;;;5069987;28;20599;-75
2022/01/17 10:51:07;;;;;;;9.70;2.53;;;7.00;99.90;;;;;;5071543;28;20198;-75
2022/01/17 10:53:33;;;;;;;8.30;2.13;;;7.10;99.90;;;;;;5060466;28;20218;-75
2022/01/17 10:56:00;;;;;;;7.10;1.60;;;7.10;99.90;;;;;;5067011;28;20219;-76
2022/01/17 10:58:31;;;;;;;5.90;1.83;;;7.20;99.90;;;;;;5065985;28;20219;-75
2022/01/17 11:01:06;;;;;;;5.50;1.57;;;7.30;99.90;;;;;;5066397;28;20236;-75
2022/01/17 11:03:34;;;;;;;7.33;1.17;;;7.40;99.90;;;;;;5068000;28;20186;-76
2022/01/17 11:06:06;;;;;;;7.43;1.47;;;7.30;99.90;;;;;;5071200;28;20276;-76
2022/01/17 11:08:33;;;;;;;8.03;2.70;;;7.50;99.90;;;;;;5069472;28;20704;-76
2022/01/17 11:11:02;;;;;;;4.47;1.67;;;7.50;99.90;;;;;;5070164;28;20275;-75
2022/01/17 11:13:29;;;;;;;10.90;2.00;;;7.50;99.90;;;;;;5068645;28;20249;-74
2022/01/17 11:15:58;;;;;;;7.40;1.70;;;7.60;99.90;;;;;;5072094;28;20273;-76
2022/01/17 11:18:27;;;;;;;8.20;1.57;;;7.50;99.90;;;;;;5068468;28;20206;-75
2022/01/17 11:20:59;;;;;;;4.77;1.00;;;7.40;99.90;;;;;;5071200;28;20211;-76
2022/01/17 11:23:26;;;;;;;3.30;1.00;;;7.10;99.90;;;;;;5068663;28;20251;-74
2022/01/17 11:25:54;;;;;;;5.00;1.40;;;6.50;99.90;;;;;;5066828;28;20200;-75
2022/01/17 11:28:31;;;;;;;3.57;1.43;;;6.20;99.90;;;;;;5065864;28;20226;-75
2022/01/17 11:31:00;;;;;;;9.13;1.60;;;5.90;99.90;;;;;;5071019;28;20202;-74
2022/01/17 11:33:27;;;;;;;6.07;1.50;;;5.70;99.90;;;;;;5069531;28;20206;-75
2022/01/17 11:35:53;;;;;;;6.97;1.77;;;5.50;99.90;;;;;;5065183;28;20207;-75
2022/01/17 11:38:39;;;;;;;8.00;2.27;;;5.30;99.90;;;;;;5094587;23;20241;-72
2022/01/17 11:41:19;;;;;;;4.20;1.93;;;5.10;99.90;;;;;;5027272;28;20209;-75
2022/01/17 11:43:55;;;;;;;6.63;1.97;;;5.20;99.90;;;;;;5045697;28;20207;-75
2022/01/17 11:46:27;;;;;;;7.87;1.33;;;5.20;99.90;;;;;;5049310;28;20216;-76
2022/01/17 11:48:55;;;;;;;6.53;1.30;;;5.10;99.90;;;;;;5030973;28;20250;-75
2022/01/17 11:51:21;;;;;;;7.40;1.50;;;5.10;99.90;;;;;;5015223;28;20182;-77
2022/01/17 11:53:49;;;;;;;7.60;1.70;;;5.10;99.90;;;;;;5005758;28;20212;-74
2022/01/17 11:56:34;;;;;;;7.47;1.90;;;5.20;99.90;;;;;;5005488;28;20224;-74
2022/01/17 11:58:59;;;;;;;5.37;1.70;;;5.20;99.90;;;;;;4999953;28;20206;-75
2022/01/17 12:01:25;;;;;;;6.50;1.57;;;5.10;99.90;;;;;;5025091;28;20222;-74
2022/01/17 12:03:53;;;;;;;5.00;1.60;;;5.10;99.90;;;;;;5002611;28;20248;-74
2022/01/17 12:06:48;;;;;;;7.70;1.70;;;5.10;99.90;;;;;;5009103;28;20733;-75
2022/01/17 12:09:23;;;;;;;9.10;1.70;;;5.20;99.90;;;;;;5006228;28;20224;-74
2022/01/17 12:12:07;;;;;;;8.03;1.77;;;5.20;99.90;;;;;;5017182;28;20214;-75
2022/01/17 12:14:51;;;;;;;7.70;2.03;;;5.20;99.90;;;;;;5003193;28;20342;-74
2022/01/17 12:17:20;;;;;;;8.27;2.13;;;5.30;99.90;;;;;;4997025;28;20737;-75
2022/01/17 12:20:09;;;;;;;8.50;1.67;;;5.30;99.90;;;;;;4999629;28;20230;-74
2022/01/17 12:22:43;;;;;;;5.90;1.70;;;5.30;99.90;;;;;;5001459;28;20215;-75
2022/01/17 12:25:24;;;;;;;9.80;2.20;;;5.40;99.90;;;;;;5001689;28;20954;-74
2022/01/17 12:28:12;;;;;;;7.13;1.60;;;5.30;99.90;;;;;;5001297;28;20177;-75
2022/01/17 12:30:43;;;;;;;5.30;2.37;;;5.40;99.90;;;;;;5005498;28;20203;-75
2022/01/17 12:33:34;;;;;;;7.23;2.37;;;5.40;99.90;;;;;;5006901;28;20193;-75
2022/01/17 12:36:03;;;;;;;6.10;1.47;;;5.50;99.90;;;;;;5006350;28;20212;-75
2022/01/17 12:38:39;;;;;;;8.13;1.40;;;5.40;99.90;;;;;;5010746;28;20720;-75
2022/01/17 12:41:05;;;;;;;4.83;1.13;;;5.50;99.90;;;;;;5006157;28;20240;-75
2022/01/17 12:43:33;;;;;;;7.37;1.97;;;5.40;99.90;;;;;;5020614;28;20606;-75
2022/01/17 12:46:03;;;;;;;3.77;1.40;;;5.40;99.90;;;;;;5007385;28;20216;-75
2022/01/17 12:48:30;;;;;;;7.40;1.57;;;5.50;99.90;;;;;;5002065;28;20675;-75
2022/01/17 12:50:57;;;;;;;5.03;2.03;;;5.50;99.90;;;;;;5019628;28;20625;-75
2022/01/17 12:53:25;;;;;;;9.10;2.30;;;5.50;99.90;;;;;;5019026;28;20212;-75
2022/01/17 12:55:50;;;;;;;8.07;2.00;;;5.60;99.90;;;;;;5000956;28;20670;-75
2022/01/17 12:58:25;;;;;;;5.90;1.73;;;5.60;99.90;;;;;;5000611;28;20244;-75
2022/01/17 13:00:58;;;;;;;5.23;2.03;;;5.60;99.90;;;;;;4999099;28;20226;-75
2022/01/17 13:03:25;;;;;;;12.63;3.20;;;5.60;99.90;;;;;;5004158;28;20185;-76
2022/01/17 13:05:53;;;;;;;7.30;2.33;;;5.50;99.90;;;;;;5000195;28;20291;-75
2022/01/17 13:08:21;;;;;;;6.00;1.90;;;5.60;99.90;;;;;;5015445;28;20217;-76
2022/01/17 13:10:47;;;;;;;6.77;2.13;;;5.70;99.90;;;;;;5016457;28;20220;-75
2022/01/17 13:13:16;;;;;;;6.20;1.37;;;5.70;99.90;;;;;;4992831;28;20698;-77
2022/01/17 13:16:02;;;;;;;8.57;1.30;;;5.60;99.90;;;;;;5000525;28;20790;-75
2022/01/17 13:18:32;;;;;;;5.03;1.40;;;5.60;99.90;;;;;;5023769;28;20650;-75